createdAt,value
2023-05-12T00:00:43.204Z,17.09
2023-05-12T00:01:43.635Z,17.04
2023-05-12T00:02:44.205Z,17.09
2023-05-12T00:03:44.677Z,17.06
2023-05-12T00:04:44.981Z,17.08
2023-05-12T00:05:45.356Z,17.08
2023-05-12T00:06:45.803Z,17.09
2023-05-12T00:07:46.222Z,16.96
2023-05-12T00:08:46.656Z,16.97
2023-05-12T00:09:47.083Z,16.87
2023-05-12T00:10:47.521Z,16.89
2023-05-12T00:11:47.960Z,16.86
2023-05-12T00:12:48.376Z,16.78
2023-05-12T00:13:48.844Z,16.81
2023-05-12T00:14:49.243Z,16.76
2023-05-12T00:15:49.669Z,16.72
2023-05-12T00:16:50.115Z,16.78
2023-05-12T00:17:50.548Z,16.65
2023-05-12T00:18:50.979Z,16.69
2023-05-12T00:19:51.393Z,16.72
2023-05-12T00:20:51.824Z,16.66
2023-05-12T00:21:52.255Z,16.64
2023-05-12T00:22:52.709Z,16.54
2023-05-12T00:23:53.126Z,16.57
2023-05-12T00:24:53.549Z,16.56
2023-05-12T00:25:54.001Z,16.56
2023-05-12T00:26:54.409Z,16.51
2023-05-12T00:27:54.837Z,16.53
2023-05-12T00:28:55.271Z,16.53
2023-05-12T00:29:55.708Z,16.43
2023-05-12T00:30:56.134Z,16.49
2023-05-12T00:31:56.658Z,16.41
2023-05-12T00:32:57.081Z,16.47
2023-05-12T00:33:57.426Z,16.49
2023-05-12T00:34:57.861Z,16.39
2023-05-12T00:35:58.300Z,16.39
2023-05-12T00:36:58.722Z,16.28
2023-05-12T00:37:59.154Z,16.28
2023-05-12T00:38:59.584Z,16.31
2023-05-12T00:40:00.030Z,16.35
2023-05-12T00:41:00.446Z,16.35
2023-05-12T00:42:00.874Z,16.46
2023-05-12T00:43:01.307Z,16.39
2023-05-12T00:44:01.772Z,16.31
2023-05-12T00:45:02.176Z,16.49
2023-05-12T00:46:02.651Z,16.51
2023-05-12T00:47:03.024Z,16.47
2023-05-12T00:48:03.544Z,16.42
2023-05-12T00:49:03.892Z,16.31
2023-05-12T00:50:04.326Z,16.36
2023-05-12T00:51:04.756Z,16.38
2023-05-12T00:52:05.184Z,16.33
2023-05-12T00:53:05.617Z,16.31
2023-05-12T00:54:06.042Z,16.36
2023-05-12T00:55:06.480Z,16.31
2023-05-12T00:56:06.907Z,16.33
2023-05-12T00:57:07.357Z,16.26
2023-05-12T00:58:07.770Z,16.35
2023-05-12T00:59:08.209Z,16.26
2023-05-12T01:00:08.639Z,16.31
2023-05-12T01:01:09.102Z,16.29
2023-05-12T01:02:09.535Z,16.23
2023-05-12T01:03:09.989Z,16.46
2023-05-12T01:04:10.359Z,16.46
2023-05-12T01:05:10.792Z,16.43
2023-05-12T01:06:11.213Z,16.47
2023-05-12T01:07:11.638Z,16.43
2023-05-12T01:08:12.073Z,16.50
2023-05-12T01:09:12.510Z,16.54
2023-05-12T01:10:12.943Z,16.49
2023-05-12T01:11:13.393Z,16.50
2023-05-12T01:12:13.801Z,16.49
2023-05-12T01:13:14.221Z,16.47
2023-05-12T01:14:14.657Z,16.39
2023-05-12T01:15:15.091Z,16.39
2023-05-12T01:16:15.514Z,16.42
2023-05-12T01:17:15.956Z,16.38
2023-05-12T01:18:16.418Z,16.41
2023-05-12T01:19:16.833Z,16.38
2023-05-12T01:20:17.373Z,16.36
2023-05-12T01:21:17.688Z,16.35
2023-05-12T01:22:18.116Z,16.36
2023-05-12T01:23:18.614Z,16.33
2023-05-12T01:24:18.966Z,16.36
2023-05-12T01:25:19.393Z,16.38
2023-05-12T01:26:19.817Z,16.29
2023-05-12T01:27:20.249Z,16.36
2023-05-12T01:28:20.675Z,16.33
2023-05-12T01:29:21.114Z,16.26
2023-05-12T01:30:21.873Z,16.29
2023-05-12T01:31:21.983Z,16.24
2023-05-12T01:32:22.481Z,16.09
2023-05-12T01:33:22.832Z,16.21
2023-05-12T01:34:23.259Z,16.17
2023-05-12T01:35:23.689Z,16.21
2023-05-12T01:36:24.119Z,16.21
2023-05-12T01:37:24.560Z,16.17
2023-05-12T01:38:24.984Z,16.13
2023-05-12T01:39:25.408Z,16.21
2023-05-12T01:40:25.841Z,16.21
2023-05-12T01:41:26.270Z,16.15
2023-05-12T01:42:26.701Z,16.26
2023-05-12T01:43:27.127Z,16.16
2023-05-12T01:44:27.557Z,16.10
2023-05-12T01:45:27.990Z,16.12
2023-05-12T01:46:28.449Z,16.15
2023-05-12T01:47:28.869Z,16.15
2023-05-12T01:48:29.278Z,16.16
2023-05-12T01:49:29.707Z,16.04
2023-05-12T01:50:30.144Z,16.04
2023-05-12T01:51:30.568Z,16.08
2023-05-12T01:52:30.998Z,15.97
2023-05-12T01:53:31.457Z,16.00
2023-05-12T01:54:31.870Z,15.94
2023-05-12T01:55:32.291Z,15.95
2023-05-12T01:56:32.714Z,15.92
2023-05-12T01:57:33.150Z,15.84
2023-05-12T01:58:33.576Z,15.91
2023-05-12T01:59:34.025Z,15.83
2023-05-12T02:00:34.436Z,15.86
2023-05-12T02:01:34.894Z,15.79
2023-05-12T02:02:35.380Z,15.75
2023-05-12T02:03:35.771Z,15.76
2023-05-12T02:04:36.159Z,15.73
2023-05-12T02:05:36.586Z,15.76
2023-05-12T02:06:37.016Z,15.59
2023-05-12T02:07:37.448Z,15.75
2023-05-12T02:08:37.920Z,15.65
2023-05-12T02:09:38.303Z,15.57
2023-05-12T02:10:38.766Z,15.61
2023-05-12T02:11:39.159Z,15.54
2023-05-12T02:12:39.596Z,15.58
2023-05-12T02:13:40.026Z,15.52
2023-05-12T02:14:40.454Z,15.51
2023-05-12T02:15:40.886Z,15.47
2023-05-12T02:16:41.417Z,15.46
2023-05-12T02:17:41.767Z,15.49
2023-05-12T02:18:42.219Z,15.44
2023-05-12T02:19:42.604Z,15.43
2023-05-12T02:20:43.028Z,15.37
2023-05-12T02:21:43.466Z,15.46
2023-05-12T02:22:43.893Z,15.46
2023-05-12T02:23:44.322Z,15.36
2023-05-12T02:24:44.772Z,15.39
2023-05-12T02:25:45.181Z,15.33
2023-05-12T02:26:45.618Z,15.31
2023-05-12T02:27:46.063Z,15.37
2023-05-12T02:28:46.471Z,15.24
2023-05-12T02:29:46.898Z,15.28
2023-05-12T02:30:47.330Z,15.22
2023-05-12T02:31:47.778Z,15.19
2023-05-12T02:32:48.233Z,15.27
2023-05-12T02:33:48.618Z,15.22
2023-05-12T02:34:49.050Z,15.18
2023-05-12T02:35:49.477Z,15.11
2023-05-12T02:36:49.914Z,15.15
2023-05-12T02:37:50.335Z,15.07
2023-05-12T02:38:50.780Z,15.04
2023-05-12T02:39:51.189Z,15.09
2023-05-12T02:40:51.622Z,15.00
2023-05-12T02:41:52.054Z,15.03
2023-05-12T02:42:52.488Z,14.96
2023-05-12T02:43:52.912Z,15.04
2023-05-12T02:44:53.339Z,15.02
2023-05-12T02:45:53.810Z,14.94
2023-05-12T02:46:54.196Z,14.82
2023-05-12T02:47:54.649Z,14.94
2023-05-12T02:48:55.058Z,14.88
2023-05-12T02:49:55.494Z,14.78
2023-05-12T02:50:55.926Z,14.78
2023-05-12T02:51:56.364Z,14.79
2023-05-12T02:52:56.771Z,14.78
2023-05-12T02:53:57.221Z,14.78
2023-05-12T02:54:57.633Z,14.73
2023-05-12T02:55:58.060Z,14.79
2023-05-12T02:56:58.488Z,14.78
2023-05-12T02:57:58.927Z,14.73
2023-05-12T02:58:59.352Z,14.73
2023-05-12T02:59:59.777Z,14.79
2023-05-12T03:01:09.762Z,14.68
2023-05-12T03:02:00.697Z,14.69
2023-05-12T03:03:01.187Z,14.59
2023-05-12T03:04:01.495Z,14.50
2023-05-12T03:05:01.934Z,14.68
2023-05-12T03:06:02.353Z,14.63
2023-05-12T03:07:02.783Z,14.62
2023-05-12T03:08:03.218Z,14.69
2023-05-12T03:09:03.647Z,14.60
2023-05-12T03:10:04.073Z,14.58
2023-05-12T03:11:04.502Z,14.54
2023-05-12T03:12:04.933Z,14.62
2023-05-12T03:13:05.359Z,14.59
2023-05-12T03:14:05.784Z,14.54
2023-05-12T03:15:06.209Z,14.55
2023-05-12T03:16:06.638Z,14.55
2023-05-12T03:17:07.108Z,14.54
2023-05-12T03:18:07.549Z,14.59
2023-05-12T03:19:07.961Z,14.59
2023-05-12T03:20:08.361Z,14.36
2023-05-12T03:21:08.781Z,14.48
2023-05-12T03:22:09.209Z,14.51
2023-05-12T03:23:09.636Z,14.50
2023-05-12T03:24:10.070Z,14.44
2023-05-12T03:25:10.531Z,14.50
2023-05-12T03:26:10.932Z,14.44
2023-05-12T03:27:11.350Z,14.41
2023-05-12T03:28:11.782Z,14.47
2023-05-12T03:29:12.209Z,14.36
2023-05-12T03:30:12.632Z,14.37
2023-05-12T03:31:13.093Z,14.35
2023-05-12T03:32:13.494Z,14.41
2023-05-12T03:33:13.926Z,14.32
2023-05-12T03:34:14.353Z,14.35
2023-05-12T03:35:14.783Z,14.37
2023-05-12T03:36:15.206Z,14.37
2023-05-12T03:37:15.636Z,14.37
2023-05-12T03:38:16.070Z,14.35
2023-05-12T03:39:16.496Z,14.40
2023-05-12T03:40:16.958Z,14.44
2023-05-12T03:41:17.365Z,14.28
2023-05-12T03:42:17.778Z,14.26
2023-05-12T03:43:18.206Z,14.25
2023-05-12T03:44:18.632Z,14.33
2023-05-12T03:45:19.067Z,14.32
2023-05-12T03:46:19.536Z,14.28
2023-05-12T03:47:20.031Z,14.22
2023-05-12T03:48:20.441Z,14.23
2023-05-12T03:49:20.776Z,14.10
2023-05-12T03:50:21.414Z,14.17
2023-05-12T03:51:21.635Z,14.20
2023-05-12T03:52:22.059Z,14.26
2023-05-12T03:53:22.483Z,14.23
2023-05-12T03:54:23.046Z,14.30
2023-05-12T03:55:23.344Z,14.30
2023-05-12T03:56:23.782Z,14.17
2023-05-12T03:57:24.201Z,14.22
2023-05-12T03:58:24.630Z,14.22
2023-05-12T03:59:25.073Z,14.15
2023-05-12T04:00:25.485Z,14.18
2023-05-12T04:01:25.920Z,14.22
2023-05-12T04:02:26.487Z,14.17
2023-05-12T04:03:26.837Z,14.10
2023-05-12T04:04:27.204Z,14.18
2023-05-12T04:05:27.633Z,14.25
2023-05-12T04:06:28.060Z,14.18
2023-05-12T04:07:28.495Z,14.30
2023-05-12T04:08:28.970Z,14.35
2023-05-12T04:09:29.347Z,14.37
2023-05-12T04:10:29.802Z,14.40
2023-05-12T04:11:30.242Z,14.50
2023-05-12T04:12:30.637Z,14.44
2023-05-12T04:13:31.054Z,14.51
2023-05-12T04:14:41.687Z,14.63
2023-05-12T04:15:31.913Z,14.62
2023-05-12T04:16:32.526Z,14.53
2023-05-12T04:17:32.801Z,14.68
2023-05-12T04:18:33.228Z,14.77
2023-05-12T04:19:33.634Z,14.69
2023-05-12T04:20:34.056Z,14.65
2023-05-12T04:21:34.486Z,14.65
2023-05-12T04:22:34.916Z,14.60
2023-05-12T04:23:35.344Z,14.77
2023-05-12T04:24:35.770Z,14.66
2023-05-12T04:25:36.198Z,14.66
2023-05-12T04:26:36.630Z,14.62
2023-05-12T04:27:37.059Z,14.81
2023-05-12T04:28:37.488Z,14.66
2023-05-12T04:29:37.914Z,14.79
2023-05-12T04:30:38.342Z,14.69
2023-05-12T04:31:38.814Z,14.77
2023-05-12T04:32:39.210Z,14.70
2023-05-12T04:33:39.629Z,14.69
2023-05-12T04:34:40.087Z,14.69
2023-05-12T04:35:40.491Z,14.77
2023-05-12T04:36:40.917Z,14.70
2023-05-12T04:37:41.347Z,14.96
2023-05-12T04:38:41.778Z,14.94
2023-05-12T04:39:42.271Z,14.96
2023-05-12T04:40:42.632Z,15.07
2023-05-12T04:41:43.061Z,15.06
2023-05-12T04:42:43.506Z,15.09
2023-05-12T04:44:44.376Z,15.09
2023-05-12T04:45:44.790Z,15.09
2023-05-12T04:46:45.205Z,15.11
2023-05-12T04:47:45.704Z,15.11
2023-05-12T04:48:46.071Z,15.24
2023-05-12T04:49:49.286Z,15.17
2023-05-12T04:50:49.787Z,15.18
2023-05-12T04:51:47.359Z,15.17
2023-05-12T04:52:47.782Z,15.07
2023-05-12T04:53:48.210Z,15.19
2023-05-12T04:54:48.641Z,15.21
2023-05-12T04:55:49.071Z,15.19
2023-05-12T04:56:49.493Z,15.25
2023-05-12T04:57:49.932Z,15.43
2023-05-12T04:58:50.360Z,15.52
2023-05-12T04:59:50.793Z,15.47
2023-05-12T05:00:51.216Z,15.49
2023-05-12T05:01:51.837Z,15.64
2023-05-12T05:02:52.169Z,15.68
2023-05-12T05:03:52.734Z,15.72
2023-05-12T05:04:52.939Z,15.64
2023-05-12T05:05:53.365Z,15.68
2023-05-12T05:06:53.791Z,15.80
2023-05-12T05:07:54.220Z,15.77
2023-05-12T05:08:54.690Z,15.76
2023-05-12T05:09:55.098Z,15.77
2023-05-12T05:10:55.519Z,15.82
2023-05-12T05:11:55.945Z,15.83
2023-05-12T05:12:56.367Z,15.90
2023-05-12T05:13:56.800Z,15.98
2023-05-12T05:14:57.232Z,16.08
2023-05-12T05:15:57.720Z,16.13
2023-05-12T05:16:58.086Z,16.24
2023-05-12T05:18:00.682Z,16.31
2023-05-12T05:18:58.958Z,16.46
2023-05-12T05:19:59.999Z,16.42
2023-05-12T05:20:59.858Z,16.49
2023-05-12T05:22:00.236Z,16.60
2023-05-12T05:23:00.680Z,16.58
2023-05-12T05:24:01.098Z,16.65
2023-05-12T05:25:01.535Z,16.53
2023-05-12T05:26:01.961Z,16.42
2023-05-12T05:27:02.436Z,16.36
2023-05-12T05:28:02.821Z,16.35
2023-05-12T05:29:03.255Z,16.24
2023-05-12T05:30:03.681Z,16.33
2023-05-12T05:31:04.176Z,16.38
2023-05-12T05:32:04.564Z,16.47
2023-05-12T05:33:05.023Z,16.46
2023-05-12T05:34:05.436Z,16.47
2023-05-12T05:35:05.834Z,16.41
2023-05-12T05:36:06.268Z,16.42
2023-05-12T05:37:06.698Z,16.58
2023-05-12T05:38:07.127Z,16.76
2023-05-12T05:39:07.559Z,16.51
2023-05-12T05:40:08.055Z,16.64
2023-05-12T05:41:08.428Z,16.79
2023-05-12T05:42:08.900Z,16.61
2023-05-12T05:43:09.280Z,16.74
2023-05-12T05:44:09.717Z,16.75
2023-05-12T05:45:10.147Z,16.90
2023-05-12T05:46:10.574Z,16.86
2023-05-12T05:47:11.147Z,16.83
2023-05-12T05:48:11.461Z,17.01
2023-05-12T05:49:11.871Z,17.04
2023-05-12T05:50:12.292Z,17.05
2023-05-12T05:51:12.730Z,17.09
2023-05-12T05:52:13.163Z,17.04
2023-05-12T05:53:13.588Z,17.26
2023-05-12T05:54:14.024Z,17.34
2023-05-12T05:55:14.448Z,17.29
2023-05-12T05:56:14.883Z,17.41
2023-05-12T05:57:15.309Z,17.39
2023-05-12T05:58:15.738Z,17.38
2023-05-12T05:59:16.170Z,17.34
2023-05-12T06:00:16.603Z,17.59
2023-05-12T06:01:17.045Z,17.60
2023-05-12T06:02:17.581Z,17.65
2023-05-12T06:03:17.928Z,17.67
2023-05-12T06:04:18.394Z,17.65
2023-05-12T06:05:18.900Z,17.57
2023-05-12T06:06:19.212Z,17.76
2023-05-12T06:07:21.514Z,17.70
2023-05-12T06:08:20.068Z,17.80
2023-05-12T06:09:20.486Z,17.74
2023-05-12T06:10:21.133Z,17.82
2023-05-12T06:11:21.364Z,17.83
2023-05-12T06:12:21.777Z,18.04
2023-05-12T06:13:22.210Z,17.97
2023-05-12T06:14:22.645Z,18.03
2023-05-12T06:15:23.277Z,18.13
2023-05-12T06:16:23.565Z,18.11
2023-05-12T06:17:23.943Z,18.23
2023-05-12T06:18:24.397Z,18.26
2023-05-12T06:19:24.802Z,18.23
2023-05-12T06:20:25.235Z,18.29
2023-05-12T06:21:25.663Z,18.47
2023-05-12T06:22:26.106Z,18.56
2023-05-12T06:23:26.533Z,18.62
2023-05-12T06:24:26.964Z,18.71
2023-05-12T06:25:27.425Z,18.86
2023-05-12T06:26:27.827Z,19.22
2023-05-12T06:27:28.331Z,19.52
2023-05-12T06:28:28.701Z,20.09
2023-05-12T06:29:29.129Z,20.63
2023-05-12T06:30:29.630Z,21.35
2023-05-12T06:31:30.068Z,21.51
2023-05-12T06:32:30.525Z,21.85
2023-05-12T06:33:30.879Z,22.17
2023-05-12T06:34:31.320Z,22.65
2023-05-12T06:35:31.749Z,22.69
2023-05-12T06:36:32.189Z,22.96
2023-05-12T06:37:32.633Z,23.08
2023-05-12T06:38:33.111Z,23.46
2023-05-12T06:39:33.501Z,23.69
2023-05-12T06:40:33.948Z,23.86
2023-05-12T06:41:34.385Z,23.78
2023-05-12T06:42:34.830Z,24.11
2023-05-12T06:43:35.285Z,23.92
2023-05-12T06:44:40.011Z,24.53
2023-05-12T06:45:36.169Z,24.85
2023-05-12T06:46:36.651Z,24.70
2023-05-12T06:47:37.062Z,24.91
2023-05-12T06:48:37.492Z,24.50
2023-05-12T06:49:37.941Z,24.58
2023-05-12T06:50:38.435Z,24.96
2023-05-12T06:51:38.829Z,25.26
2023-05-12T06:52:39.270Z,25.50
2023-05-12T06:53:39.711Z,26.06
2023-05-12T06:54:40.155Z,26.37
2023-05-12T06:55:40.685Z,25.21
2023-05-12T06:56:41.060Z,25.59
2023-05-12T06:57:41.505Z,25.99
2023-05-12T06:58:41.947Z,25.48
2023-05-12T06:59:42.394Z,25.73
2023-05-12T07:00:42.842Z,26.09
2023-05-12T07:01:43.443Z,26.45
2023-05-12T07:02:43.757Z,26.78
2023-05-12T07:03:44.203Z,26.99
2023-05-12T07:04:44.641Z,26.81
2023-05-12T07:05:45.097Z,27.05
2023-05-12T07:06:45.539Z,27.21
2023-05-12T07:07:45.990Z,27.52
2023-05-12T07:08:46.442Z,27.51
2023-05-12T07:09:46.894Z,26.81
2023-05-12T07:10:47.407Z,26.47
2023-05-12T07:11:47.809Z,26.63
2023-05-12T07:12:48.254Z,27.07
2023-05-12T07:13:48.707Z,27.36
2023-05-12T07:14:49.161Z,27.07
2023-05-12T07:15:49.634Z,27.20
2023-05-12T07:16:50.056Z,27.55
2023-05-12T07:17:50.511Z,27.63
2023-05-12T07:18:50.980Z,27.80
2023-05-12T07:19:51.418Z,27.82
2023-05-12T07:20:51.875Z,28.10
2023-05-12T07:21:52.332Z,27.73
2023-05-12T07:22:52.781Z,27.35
2023-05-12T07:23:53.238Z,26.52
2023-05-12T07:24:53.718Z,26.47
2023-05-12T07:25:54.152Z,25.99
2023-05-12T07:26:54.622Z,26.16
2023-05-12T07:27:55.120Z,26.52
2023-05-12T07:28:55.529Z,26.74
2023-05-12T07:29:55.970Z,27.15
2023-05-12T07:30:56.522Z,27.45
2023-05-12T07:31:56.878Z,27.68
2023-05-12T07:32:57.380Z,27.80
2023-05-12T07:33:57.844Z,27.71
2023-05-12T07:34:58.254Z,27.78
2023-05-12T07:35:58.716Z,27.70
2023-05-12T07:36:59.173Z,27.85
2023-05-12T07:37:59.621Z,28.04
2023-05-12T07:39:00.093Z,27.90
2023-05-12T07:40:00.533Z,28.01
2023-05-12T07:41:01.008Z,28.23
2023-05-12T07:42:01.451Z,28.32
2023-05-12T07:43:01.910Z,27.89
2023-05-12T07:44:02.366Z,27.74
2023-05-12T07:45:02.825Z,27.45
2023-05-12T07:46:03.287Z,26.80
2023-05-12T07:47:03.753Z,26.99
2023-05-12T07:48:04.281Z,27.64
2023-05-12T07:49:04.673Z,28.04
2023-05-12T07:50:05.123Z,28.05
2023-05-12T07:51:05.580Z,27.67
2023-05-12T07:52:06.039Z,27.59
2023-05-12T07:53:06.505Z,27.25
2023-05-12T07:54:06.954Z,27.20
2023-05-12T07:55:07.440Z,27.44
2023-05-12T07:56:07.937Z,28.01
2023-05-12T07:57:08.456Z,28.45
2023-05-12T07:58:08.797Z,27.87
2023-05-12T07:59:09.256Z,27.93
2023-05-12T08:00:09.717Z,27.18
2023-05-12T08:01:10.193Z,27.35
2023-05-12T08:02:10.717Z,27.45
2023-05-12T08:03:11.156Z,26.59
2023-05-12T08:04:11.652Z,27.35
2023-05-12T08:05:12.034Z,27.80
2023-05-12T08:06:12.484Z,27.77
2023-05-12T08:07:12.958Z,27.93
2023-05-12T08:08:13.409Z,28.04
2023-05-12T08:09:13.877Z,27.20
2023-05-12T08:10:16.939Z,27.68
2023-05-12T08:11:14.796Z,27.86
2023-05-12T08:12:15.255Z,28.41
2023-05-12T08:13:15.735Z,28.56
2023-05-12T08:14:16.176Z,29.34
2023-05-12T08:15:16.635Z,29.97
2023-05-12T08:16:17.138Z,28.72
2023-05-12T08:17:17.629Z,29.76
2023-05-12T08:18:18.067Z,30.44
2023-05-12T08:19:18.486Z,31.10
2023-05-12T08:20:18.967Z,31.44
2023-05-12T08:21:19.415Z,31.17
2023-05-12T08:22:19.873Z,31.36
2023-05-12T08:23:20.358Z,30.99
2023-05-12T08:24:20.805Z,30.70
2023-05-12T08:25:21.430Z,30.44
2023-05-12T08:26:21.805Z,30.10
2023-05-12T08:27:22.205Z,29.59
2023-05-12T08:28:22.655Z,29.45
2023-05-12T08:29:23.113Z,29.34
2023-05-12T08:30:23.636Z,29.24
2023-05-12T08:31:24.088Z,29.71
2023-05-12T08:32:26.511Z,29.72
2023-05-12T08:33:24.962Z,29.12
2023-05-12T08:34:25.427Z,28.69
2023-05-12T08:35:25.891Z,28.20
2023-05-12T08:36:26.349Z,27.74
2023-05-12T08:37:26.813Z,27.29
2023-05-12T08:38:27.273Z,27.85
2023-05-12T08:39:27.731Z,28.47
2023-05-12T08:40:28.194Z,29.07
2023-05-12T08:41:28.796Z,28.59
2023-05-12T08:42:29.110Z,28.11
2023-05-12T08:43:29.572Z,27.70
2023-05-12T08:44:30.031Z,27.32
2023-05-12T08:45:30.501Z,27.36
2023-05-12T08:46:31.004Z,26.19
2023-05-12T08:47:31.433Z,26.81
2023-05-12T08:48:31.870Z,27.80
2023-05-12T08:49:32.338Z,28.04
2023-05-12T08:50:32.805Z,28.35
2023-05-12T08:51:33.253Z,28.57
2023-05-12T08:52:33.699Z,28.79
2023-05-12T08:53:34.170Z,29.04
2023-05-12T08:54:37.850Z,29.66
2023-05-12T08:55:35.337Z,29.93
2023-05-12T08:57:37.495Z,30.03
2023-05-12T08:58:41.716Z,29.79
2023-05-12T08:59:36.920Z,29.81
2023-05-12T09:00:37.427Z,30.05
2023-05-12T09:01:37.867Z,29.88
2023-05-12T09:02:51.959Z,29.86
2023-05-12T09:03:38.889Z,29.78
2023-05-12T09:04:39.249Z,29.45
2023-05-12T09:05:39.686Z,29.16
2023-05-12T09:06:40.139Z,29.59
2023-05-12T09:07:40.605Z,29.94
2023-05-12T09:08:41.073Z,29.71
2023-05-12T09:09:41.520Z,29.16
2023-05-12T09:10:42.006Z,28.63
2023-05-12T09:11:42.481Z,29.29
2023-05-12T09:12:42.912Z,29.93
2023-05-12T09:13:43.374Z,31.02
2023-05-12T09:14:43.826Z,31.36
2023-05-12T09:15:44.287Z,32.38
2023-05-12T09:16:44.768Z,32.22
2023-05-12T09:17:48.004Z,30.63
2023-05-12T09:18:45.694Z,30.25
2023-05-12T09:19:46.161Z,29.53
2023-05-12T09:20:46.598Z,29.69
2023-05-12T09:21:47.061Z,28.98
2023-05-12T09:22:47.525Z,29.41
2023-05-12T09:23:47.982Z,29.65
2023-05-12T09:24:48.459Z,29.79
2023-05-12T09:25:48.945Z,30.46
2023-05-12T09:26:49.446Z,30.32
2023-05-12T09:27:49.836Z,30.25
2023-05-12T09:28:50.291Z,30.83
2023-05-12T09:29:59.396Z,31.07
2023-05-12T09:30:51.217Z,30.78
2023-05-12T09:31:51.714Z,31.31
2023-05-12T09:32:52.189Z,31.71
2023-05-12T09:33:52.609Z,32.09
2023-05-12T09:34:53.066Z,32.15
2023-05-12T09:35:53.529Z,32.40
2023-05-12T09:36:53.998Z,32.38
2023-05-12T09:37:54.467Z,32.53
2023-05-12T09:38:54.941Z,33.00
2023-05-12T09:39:55.385Z,33.32
2023-05-12T09:40:55.853Z,32.77
2023-05-12T09:41:56.374Z,32.52
2023-05-12T09:42:56.780Z,32.38
2023-05-12T09:44:00.098Z,32.30
2023-05-12T09:44:57.725Z,31.64
2023-05-12T09:45:58.223Z,31.34
2023-05-12T09:46:58.659Z,29.79
2023-05-12T09:47:59.162Z,30.94
2023-05-12T09:48:59.580Z,31.05
2023-05-12T09:50:00.041Z,31.61
2023-05-12T09:51:00.512Z,31.15
2023-05-12T09:52:00.959Z,31.39
2023-05-12T09:53:01.437Z,31.81
2023-05-12T09:54:01.890Z,31.54
2023-05-12T09:55:02.398Z,31.36
2023-05-12T09:56:04.569Z,30.83
2023-05-12T09:57:03.365Z,30.78
2023-05-12T09:58:03.747Z,30.90
2023-05-12T09:59:04.220Z,31.09
2023-05-12T10:00:07.448Z,31.18
2023-05-12T10:01:21.911Z,30.44
2023-05-12T10:02:13.465Z,31.18
2023-05-12T10:03:06.106Z,31.17
2023-05-12T10:04:06.581Z,30.80
2023-05-12T10:05:07.149Z,30.83
2023-05-12T10:06:08.126Z,30.85
2023-05-12T10:07:07.928Z,30.81
2023-05-12T10:08:08.404Z,31.31
2023-05-12T10:09:08.874Z,31.70
2023-05-12T10:10:09.321Z,32.04
2023-05-12T10:11:09.781Z,32.46
2023-05-12T10:12:10.303Z,32.85
2023-05-12T10:13:10.723Z,33.14
2023-05-12T10:14:11.210Z,32.68
2023-05-12T10:15:11.668Z,31.07
2023-05-12T10:16:12.243Z,32.16
2023-05-12T10:17:12.684Z,32.68
2023-05-12T10:18:13.083Z,33.12
2023-05-12T10:19:13.628Z,33.36
2023-05-12T10:20:14.148Z,33.99
2023-05-12T10:21:14.434Z,33.14
2023-05-12T10:22:14.912Z,33.36
2023-05-12T10:23:15.389Z,33.14
2023-05-12T10:24:15.871Z,33.74
2023-05-12T10:25:16.316Z,33.92
2023-05-12T10:26:16.777Z,33.49
2023-05-12T10:27:17.321Z,32.85
2023-05-12T10:28:17.722Z,32.67
2023-05-12T10:29:18.225Z,32.41
2023-05-12T10:30:18.688Z,32.93
2023-05-12T10:31:19.158Z,33.20
2023-05-12T10:32:19.600Z,33.04
2023-05-12T10:33:20.062Z,33.02
2023-05-12T10:34:20.518Z,32.56
2023-05-12T10:35:23.578Z,32.74
2023-05-12T10:36:21.456Z,33.02
2023-05-12T10:37:21.924Z,31.85
2023-05-12T10:38:22.426Z,32.43
2023-05-12T10:39:22.865Z,33.31
2023-05-12T10:40:23.328Z,32.75
2023-05-12T10:41:23.806Z,32.93
2023-05-12T10:42:24.298Z,32.33
2023-05-12T10:43:29.621Z,32.00
2023-05-12T10:44:25.225Z,31.85
2023-05-12T10:45:32.576Z,32.51
2023-05-12T10:46:26.198Z,33.08
2023-05-12T10:47:26.698Z,33.01
2023-05-12T10:48:27.065Z,32.90
2023-05-12T10:49:27.536Z,32.80
2023-05-12T10:50:28.006Z,32.95
2023-05-12T10:51:28.557Z,33.04
2023-05-12T10:52:28.939Z,33.46
2023-05-12T10:53:41.452Z,32.70
2023-05-12T10:54:29.875Z,32.14
2023-05-12T10:55:30.426Z,32.40
2023-05-12T10:56:31.106Z,32.51
2023-05-12T10:57:31.607Z,31.73
2023-05-12T10:58:32.013Z,31.69
2023-05-12T10:59:35.358Z,32.85
2023-05-12T11:00:33.171Z,33.80
2023-05-12T11:01:33.464Z,34.17
2023-05-12T11:02:36.928Z,34.95
2023-05-12T11:03:34.788Z,35.02
2023-05-12T11:04:34.689Z,34.16
2023-05-12T11:05:35.161Z,33.14
2023-05-12T11:06:36.365Z,32.90
2023-05-12T11:07:37.285Z,33.05
2023-05-12T11:08:37.628Z,32.73
2023-05-12T11:09:40.738Z,32.38
2023-05-12T11:10:37.430Z,34.06
2023-05-12T11:11:38.427Z,33.68
2023-05-12T11:12:38.458Z,33.34
2023-05-12T11:13:38.770Z,32.22
2023-05-12T11:14:39.335Z,32.52
2023-05-12T11:15:39.713Z,33.17
2023-05-12T11:16:40.288Z,33.08
2023-05-12T11:17:40.734Z,32.74
2023-05-12T11:18:41.149Z,32.14
2023-05-12T11:19:41.582Z,31.39
2023-05-12T11:20:42.061Z,30.72
2023-05-12T11:21:42.562Z,31.03
2023-05-12T11:22:42.994Z,31.33
2023-05-12T11:23:43.448Z,31.56
2023-05-12T11:24:43.925Z,31.46
2023-05-12T11:25:44.522Z,31.34
2023-05-12T11:26:44.843Z,31.85
2023-05-12T11:27:45.451Z,31.85
2023-05-12T11:28:45.789Z,31.61
2023-05-12T11:29:46.250Z,31.22
2023-05-12T11:30:46.708Z,31.09
2023-05-12T11:31:47.188Z,30.94
2023-05-12T11:32:47.677Z,31.28
2023-05-12T11:33:50.438Z,31.29
2023-05-12T11:34:48.583Z,30.54
2023-05-12T11:35:49.028Z,29.95
2023-05-12T11:36:49.496Z,28.93
2023-05-12T11:38:14.153Z,27.40
2023-05-12T11:38:50.421Z,27.12
2023-05-12T11:39:50.884Z,26.99
2023-05-12T11:40:51.353Z,26.52
2023-05-12T11:41:59.342Z,26.34
2023-05-12T11:42:52.589Z,25.98
2023-05-12T11:43:52.710Z,25.72
2023-05-12T11:44:53.207Z,25.50
2023-05-12T11:45:53.665Z,25.51
2023-05-12T11:46:54.076Z,25.25
2023-05-12T11:47:54.573Z,24.91
2023-05-12T11:48:54.975Z,25.14
2023-05-12T11:49:55.456Z,25.17
2023-05-12T11:50:55.884Z,25.03
2023-05-12T11:51:56.327Z,24.95
2023-05-12T11:52:56.776Z,24.93
2023-05-12T11:53:57.231Z,24.88
2023-05-12T11:54:57.725Z,24.78
2023-05-12T11:55:58.114Z,24.53
2023-05-12T11:56:58.564Z,24.30
2023-05-12T11:57:59.044Z,24.13
2023-05-12T11:58:59.457Z,24.33
2023-05-12T11:59:59.897Z,24.26
2023-05-12T12:01:00.346Z,24.26
2023-05-12T12:02:00.846Z,24.39
2023-05-12T12:03:01.321Z,24.35
2023-05-12T12:04:01.817Z,24.36
2023-05-12T12:05:02.122Z,24.45
2023-05-12T12:06:02.588Z,24.48
2023-05-12T12:07:03.010Z,24.57
2023-05-12T12:08:03.465Z,24.55
2023-05-12T12:09:03.939Z,24.58
2023-05-12T12:10:04.350Z,24.43
2023-05-12T12:11:04.795Z,24.58
2023-05-12T12:12:05.236Z,24.55
2023-05-12T12:13:08.668Z,24.58
2023-05-12T12:14:06.122Z,24.60
2023-05-12T12:15:09.205Z,24.32
2023-05-12T12:16:07.081Z,24.50
2023-05-12T12:17:07.446Z,24.55
2023-05-12T12:18:07.987Z,24.39
2023-05-12T12:19:08.537Z,24.45
2023-05-12T12:20:08.775Z,24.36
2023-05-12T12:21:09.224Z,24.43
2023-05-12T12:22:09.661Z,24.28
2023-05-12T12:23:10.106Z,24.23
2023-05-12T12:24:10.550Z,24.24
2023-05-12T12:25:11.008Z,24.39
2023-05-12T12:26:11.440Z,24.43
2023-05-12T12:27:11.883Z,24.45
2023-05-12T12:28:12.345Z,24.47
2023-05-12T12:29:12.777Z,24.39
2023-05-12T12:30:13.273Z,24.57
2023-05-12T12:31:13.696Z,24.54
2023-05-12T12:32:14.099Z,24.40
2023-05-12T12:33:14.632Z,24.35
2023-05-12T12:34:14.965Z,24.42
2023-05-12T12:35:15.438Z,24.33
2023-05-12T12:36:15.864Z,24.40
2023-05-12T12:37:16.368Z,24.38
2023-05-12T12:38:16.768Z,24.26
2023-05-12T12:39:19.657Z,24.60
2023-05-12T12:40:17.622Z,24.68
2023-05-12T12:41:18.069Z,24.61
2023-05-12T12:42:19.157Z,24.58
2023-05-12T12:43:19.665Z,24.73
2023-05-12T12:44:19.389Z,24.63
2023-05-12T12:45:20.615Z,24.65
2023-05-12T12:46:20.304Z,24.40
2023-05-12T12:47:20.725Z,24.45
2023-05-12T12:48:21.189Z,24.43
2023-05-12T12:49:21.605Z,24.47
2023-05-12T12:50:22.044Z,24.39
2023-05-12T12:51:22.486Z,24.24
2023-05-12T12:52:22.928Z,24.24
2023-05-12T12:53:23.368Z,24.28
2023-05-12T12:54:23.823Z,24.30
2023-05-12T12:55:24.466Z,24.38
2023-05-12T12:56:25.557Z,24.39
2023-05-12T12:57:26.153Z,24.39
2023-05-12T12:58:25.821Z,24.40
2023-05-12T12:59:26.012Z,24.45
2023-05-12T13:00:26.466Z,24.40